Time;durP1;ratioP1;P1;durP2;ratioP2;P2;SDS_P1;SDS_P2;PMS_P1;PMS_P2;Temp;Humidity;BMP_temperature;BMP_pressure;BME280_temperature;BME280_humidity;BME280_pressure;Samples;Min_cycle;Max_cycle;Signal;HPM_P1;HPM_P2
2023/05/08 00:01:07;;;;;;;15.23;9.48;;;17.20;95.50;;;;;;5073234;28;20029;-74
2023/05/08 00:03:33;;;;;;;13.43;9.68;;;17.20;95.50;;;;;;5073196;28;20025;-74
2023/05/08 00:05:58;;;;;;;14.05;8.82;;;17.20;95.50;;;;;;5056644;28;20032;-74
2023/05/08 00:08:24;;;;;;;11.52;8.70;;;17.20;95.50;;;;;;5074096;28;20025;-74
2023/05/08 00:10:50;;;;;;;14.50;8.85;;;17.20;95.50;;;;;;5073130;28;20428;-74
2023/05/08 00:13:16;;;;;;;14.38;9.43;;;17.20;95.50;;;;;;5074140;28;20029;-74
2023/05/08 00:15:41;;;;;;;14.65;9.93;;;17.20;95.50;;;;;;5073953;28;20033;-74
2023/05/08 00:18:07;;;;;;;12.98;9.27;;;17.20;95.50;;;;;;5073903;28;20047;-74
2023/05/08 00:20:33;;;;;;;13.02;8.68;;;17.20;95.40;;;;;;5073834;28;20039;-74
2023/05/08 00:22:59;;;;;;;16.38;8.93;;;17.20;95.40;;;;;;5073733;28;20028;-73
2023/05/08 00:25:26;;;;;;;13.43;9.63;;;17.10;95.40;;;;;;5073816;28;20045;-74
2023/05/08 00:27:52;;;;;;;14.38;9.85;;;17.10;95.50;;;;;;5073755;28;20055;-74
2023/05/08 00:30:17;;;;;;;18.35;10.95;;;17.10;95.50;;;;;;5073699;28;20017;-74
2023/05/08 00:32:43;;;;;;;15.95;10.88;;;17.10;95.60;;;;;;5073643;28;20555;-74
2023/05/08 00:35:09;;;;;;;14.60;10.52;;;17.10;95.60;;;;;;5072795;28;20464;-74
2023/05/08 00:37:36;;;;;;;16.00;10.52;;;17.10;95.60;;;;;;5072674;28;20483;-74
2023/05/08 00:40:02;;;;;;;14.05;9.50;;;17.10;95.70;;;;;;5072536;28;20047;-74
2023/05/08 00:42:28;;;;;;;12.48;9.27;;;17.20;95.70;;;;;;5072492;28;20039;-74
2023/05/08 00:44:54;;;;;;;17.35;10.52;;;17.10;95.60;;;;;;5073272;28;20032;-75
2023/05/08 00:47:21;;;;;;;16.77;10.30;;;17.10;95.60;;;;;;5073624;28;20028;-74
2023/05/08 00:49:47;;;;;;;17.50;11.07;;;17.10;95.70;;;;;;5072446;28;20021;-74
2023/05/08 00:52:13;;;;;;;15.82;10.88;;;17.10;95.70;;;;;;5073365;28;20029;-74
2023/05/08 00:54:39;;;;;;;15.45;10.77;;;17.10;95.80;;;;;;5072407;28;20036;-74
2023/05/08 00:57:06;;;;;;;17.90;11.25;;;17.20;95.80;;;;;;5071442;28;20029;-75
2023/05/08 00:59:34;;;;;;;16.40;11.13;;;17.10;95.80;;;;;;5072212;28;20055;-74
2023/05/08 01:02:00;;;;;;;19.55;12.23;;;17.10;95.80;;;;;;5073154;28;20036;-74
2023/05/08 01:04:28;;;;;;;19.25;12.00;;;17.10;95.80;;;;;;5055615;28;20021;-75
2023/05/08 01:06:54;;;;;;;17.63;10.95;;;17.10;95.90;;;;;;5073185;28;20029;-74
2023/05/08 01:09:20;;;;;;;18.17;12.73;;;17.10;95.90;;;;;;5073157;28;20515;-74
2023/05/08 01:11:45;;;;;;;20.02;12.80;;;17.10;96.00;;;;;;5073250;28;20028;-74
2023/05/08 01:14:12;;;;;;;14.80;10.60;;;17.10;96.00;;;;;;5073058;28;20044;-74
2023/05/08 01:16:45;;;;;;;16.60;10.68;;;17.10;96.00;;;;;;5072074;28;20365;-74
2023/05/08 01:19:17;;;;;;;15.80;10.18;;;17.10;95.90;;;;;;5073041;28;20037;-74
2023/05/08 01:21:52;;;;;;;16.17;10.93;;;17.10;95.90;;;;;;5073074;28;20025;-74
2023/05/08 01:24:24;;;;;;;17.42;11.27;;;17.10;95.90;;;;;;5073074;28;20017;-75
2023/05/08 01:27:01;;;;;;;16.02;10.65;;;17.00;95.80;;;;;;5071948;28;20025;-74
2023/05/08 01:29:46;;;;;;;18.45;11.65;;;17.00;95.90;;;;;;5071920;28;20027;-74
2023/05/08 01:32:25;;;;;;;19.08;11.43;;;17.00;96.00;;;;;;5072924;28;20104;-74
2023/05/08 01:34:56;;;;;;;18.35;11.88;;;17.00;96.00;;;;;;5072885;28;20024;-74
2023/05/08 01:37:32;;;;;;;18.88;12.85;;;17.00;96.00;;;;;;5072910;28;20035;-74
2023/05/08 01:40:08;;;;;;;18.85;12.13;;;17.00;96.00;;;;;;5072925;28;20025;-74
2023/05/08 01:42:45;;;;;;;19.40;11.93;;;17.00;96.00;;;;;;5072792;28;20033;-74
2023/05/08 01:45:24;;;;;;;18.92;12.65;;;17.00;96.00;;;;;;5071678;28;20044;-75
2023/05/08 01:48:23;;;;;;;19.45;11.85;;;17.00;96.10;;;;;;5072821;28;20021;-74
2023/05/08 01:50:55;;;;;;;15.68;11.40;;;16.90;96.10;;;;;;5072356;28;20083;-74
2023/05/08 01:53:29;;;;;;;17.25;11.90;;;16.90;96.20;;;;;;5072848;28;20082;-74
2023/05/08 01:55:59;;;;;;;17.58;11.55;;;16.90;96.20;;;;;;5071760;28;20032;-74
2023/05/08 01:58:26;;;;;;;18.77;11.68;;;16.90;96.30;;;;;;5072723;28;20025;-74
2023/05/08 02:00:52;;;;;;;17.40;11.80;;;16.90;96.30;;;;;;5072631;28;20039;-74
2023/05/08 02:03:20;;;;;;;18.27;12.48;;;16.90;96.30;;;;;;5072575;28;20025;-74
2023/05/08 02:05:50;;;;;;;18.75;11.63;;;16.90;96.30;;;;;;5072716;28;20048;-74
2023/05/08 02:08:17;;;;;;;17.70;11.68;;;16.90;96.30;;;;;;5074205;28;20025;-74
2023/05/08 02:10:44;;;;;;;17.00;11.27;;;16.90;96.30;;;;;;5076382;28;20024;-74
2023/05/08 02:13:12;;;;;;;16.58;11.43;;;16.90;96.20;;;;;;5076319;28;20032;-74
2023/05/08 02:15:40;;;;;;;16.75;11.60;;;16.80;96.30;;;;;;5075260;28;20449;-74
2023/05/08 02:18:07;;;;;;;13.00;9.68;;;16.80;96.40;;;;;;5075307;28;20021;-74
2023/05/08 02:20:33;;;;;;;13.85;10.07;;;16.80;96.30;;;;;;5076166;28;20029;-74
2023/05/08 02:23:01;;;;;;;14.73;10.38;;;16.80;96.30;;;;;;5076110;28;20036;-74
2023/05/08 02:25:28;;;;;;;17.30;12.63;;;16.80;96.40;;;;;;5075246;28;20021;-74
2023/05/08 02:27:55;;;;;;;19.08;13.15;;;16.80;96.40;;;;;;5076058;28;20025;-74
2023/05/08 02:30:23;;;;;;;21.42;12.55;;;16.70;96.60;;;;;;5076031;28;20028;-74
2023/05/08 02:32:49;;;;;;;19.27;12.65;;;16.70;96.70;;;;;;5075973;28;20025;-74
2023/05/08 02:35:17;;;;;;;18.25;11.55;;;16.70;96.80;;;;;;5075868;28;20036;-74
2023/05/08 02:37:46;;;;;;;18.98;11.77;;;16.70;96.80;;;;;;5074880;28;20025;-74
2023/05/08 02:40:15;;;;;;;18.08;11.73;;;16.70;96.70;;;;;;5075817;28;20025;-74
2023/05/08 02:42:41;;;;;;;18.05;12.15;;;16.70;96.60;;;;;;5075716;28;20128;-74
2023/05/08 02:45:07;;;;;;;18.92;11.68;;;16.70;96.60;;;;;;5075557;28;20037;-75
2023/05/08 02:47:42;;;;;;;22.17;13.52;;;16.70;96.70;;;;;;5074666;28;20028;-74
2023/05/08 02:50:22;;;;;;;22.60;14.18;;;16.70;96.80;;;;;;5075641;28;20096;-74
2023/05/08 02:52:52;;;;;;;25.90;14.52;;;16.70;96.80;;;;;;5075636;28;20483;-74
2023/05/08 02:55:33;;;;;;;24.63;14.95;;;16.70;96.80;;;;;;5075701;28;20017;-74
2023/05/08 02:58:09;;;;;;;24.42;15.07;;;16.70;96.80;;;;;;5075530;28;20029;-74
2023/05/08 03:00:43;;;;;;;26.67;16.05;;;16.70;96.80;;;;;;5074434;28;20029;-74
2023/05/08 03:03:29;;;;;;;29.00;16.13;;;16.60;96.80;;;;;;5075360;28;20047;-74
2023/05/08 03:05:58;;;;;;;26.42;15.27;;;16.60;96.80;;;;;;5075346;28;20023;-74
2023/05/08 03:08:31;;;;;;;29.60;15.52;;;16.60;96.80;;;;;;5075280;28;20025;-74
2023/05/08 03:11:01;;;;;;;26.27;15.93;;;16.60;96.90;;;;;;5075307;28;20020;-74
2023/05/08 03:13:30;;;;;;;30.35;15.95;;;16.50;97.00;;;;;;5074281;28;20017;-74
2023/05/08 03:15:59;;;;;;;25.92;14.85;;;16.50;97.10;;;;;;5075152;28;20061;-74
2023/05/08 03:18:35;;;;;;;25.00;15.73;;;16.50;97.20;;;;;;5075073;28;20017;-74
2023/05/08 03:21:01;;;;;;;25.80;15.55;;;16.50;97.20;;;;;;5074275;28;20093;-74
2023/05/08 03:23:32;;;;;;;26.30;15.68;;;16.50;97.20;;;;;;5075066;28;20029;-74
2023/05/08 03:25:59;;;;;;;24.70;15.27;;;16.60;97.20;;;;;;5073905;28;20021;-74
2023/05/08 03:28:26;;;;;;;28.15;15.25;;;16.60;97.10;;;;;;5074907;28;20089;-74
2023/05/08 03:30:53;;;;;;;26.05;14.35;;;16.60;96.90;;;;;;5074060;28;20029;-74
2023/05/08 03:33:20;;;;;;;24.38;14.65;;;16.60;96.80;;;;;;5074761;28;20028;-74
2023/05/08 03:35:48;;;;;;;26.50;14.82;;;16.70;96.80;;;;;;5074756;28;20088;-74
2023/05/08 03:38:14;;;;;;;24.52;14.75;;;16.70;96.70;;;;;;5074844;28;20029;-74
2023/05/08 03:40:42;;;;;;;24.15;14.63;;;16.70;96.60;;;;;;5074667;28;20071;-74
2023/05/08 03:43:10;;;;;;;23.98;14.52;;;16.70;96.60;;;;;;5057397;28;20040;-74
2023/05/08 03:45:37;;;;;;;25.67;15.15;;;16.70;96.90;;;;;;5073435;28;20048;-74
2023/05/08 03:48:04;;;;;;;24.10;14.10;;;16.70;96.50;;;;;;5074560;28;20024;-74
2023/05/08 03:50:30;;;;;;;24.75;14.73;;;16.70;96.50;;;;;;5073572;28;20050;-74
2023/05/08 03:52:57;;;;;;;25.38;15.13;;;16.70;96.50;;;;;;5073505;28;20049;-74
2023/05/08 03:55:23;;;;;;;25.20;14.63;;;16.60;96.40;;;;;;5074275;28;20525;-74
2023/05/08 03:58:16;;;;;;;26.30;15.23;;;16.50;96.50;;;;;;5074370;28;20033;-74
2023/05/08 04:00:55;;;;;;;27.15;15.25;;;16.50;96.50;;;;;;5074317;28;20028;-74
2023/05/08 04:03:35;;;;;;;28.83;15.95;;;16.50;96.70;;;;;;5074315;28;20040;-74
2023/05/08 04:06:21;;;;;;;27.85;15.25;;;16.50;96.70;;;;;;5074427;28;20016;-74
2023/05/08 04:09:03;;;;;;;27.70;14.57;;;16.50;96.70;;;;;;5074193;28;20464;-74
2023/05/08 04:11:45;;;;;;;24.73;14.20;;;16.40;96.70;;;;;;5074247;28;20025;-74
2023/05/08 04:14:18;;;;;;;27.75;14.65;;;16.40;96.80;;;;;;5073147;28;20040;-74
2023/05/08 04:16:50;;;;;;;28.77;15.68;;;16.40;96.80;;;;;;5074001;28;20029;-74
2023/05/08 04:19:24;;;;;;;25.27;15.07;;;16.30;96.80;;;;;;5074020;28;20056;-74
2023/05/08 04:21:54;;;;;;;28.30;15.13;;;16.30;96.80;;;;;;5073838;28;20028;-74
2023/05/08 04:24:21;;;;;;;26.08;14.82;;;16.30;96.90;;;;;;5073926;28;20028;-74
2023/05/08 04:26:47;;;;;;;29.00;15.77;;;16.30;97.20;;;;;;5073786;28;20021;-74
2023/05/08 04:29:13;;;;;;;28.05;15.63;;;16.30;96.70;;;;;;5073802;28;20080;-74
2023/05/08 04:31:39;;;;;;;25.02;14.68;;;16.30;96.70;;;;;;5055932;28;20051;-74
2023/05/08 04:34:08;;;;;;;27.08;15.80;;;16.40;96.60;;;;;;5072572;28;20100;-74
2023/05/08 04:36:34;;;;;;;24.15;13.95;;;16.40;96.50;;;;;;5073701;28;20022;-74
2023/05/08 04:38:59;;;;;;;29.25;15.52;;;16.40;96.30;;;;;;5073552;28;20058;-74
2023/05/08 04:41:25;;;;;;;27.45;16.25;;;16.40;96.20;;;;;;5073620;28;20033;-74
2023/05/08 04:43:52;;;;;;;26.25;15.73;;;16.30;96.20;;;;;;5073658;28;20021;-74
2023/05/08 04:46:18;;;;;;;29.00;16.10;;;16.30;96.30;;;;;;5073120;28;20049;-74
2023/05/08 04:48:43;;;;;;;26.80;15.15;;;16.30;96.40;;;;;;5072499;28;20084;-74
2023/05/08 04:51:09;;;;;;;26.92;15.35;;;16.30;96.40;;;;;;5073388;28;20026;-74
2023/05/08 04:53:35;;;;;;;26.17;14.88;;;16.30;96.40;;;;;;5072553;28;20477;-74
2023/05/08 04:56:00;;;;;;;30.48;16.40;;;16.30;96.40;;;;;;5072403;28;20029;-74
2023/05/08 04:58:27;;;;;;;29.80;17.10;;;16.30;96.40;;;;;;5072516;28;20025;-75
2023/05/08 05:00:53;;;;;;;27.42;16.05;;;16.30;96.30;;;;;;5073288;28;20081;-75
2023/05/08 05:03:19;;;;;;;29.45;16.52;;;16.40;96.30;;;;;;5073177;28;20033;-75
2023/05/08 05:05:44;;;;;;;27.17;15.93;;;16.40;96.30;;;;;;5055671;28;20043;-75
2023/05/08 05:08:10;;;;;;;30.13;16.20;;;16.40;96.30;;;;;;5073306;28;20036;-74
2023/05/08 05:10:38;;;;;;;28.23;15.75;;;16.40;96.30;;;;;;5055442;28;20040;-75
2023/05/08 05:13:04;;;;;;;29.65;15.63;;;16.40;96.30;;;;;;5072951;28;20092;-75
2023/05/08 05:15:30;;;;;;;28.70;15.80;;;16.40;96.40;;;;;;5072039;28;20044;-75
2023/05/08 05:17:55;;;;;;;32.08;16.33;;;16.40;96.60;;;;;;5072111;28;20029;-74
2023/05/08 05:20:21;;;;;;;30.33;16.48;;;16.40;96.70;;;;;;5073022;28;20048;-74
2023/05/08 05:22:46;;;;;;;31.40;16.67;;;16.50;96.70;;;;;;5072006;28;20039;-74
2023/05/08 05:25:12;;;;;;;31.33;17.05;;;16.50;96.70;;;;;;5072968;28;20036;-74
2023/05/08 05:27:38;;;;;;;30.95;16.40;;;16.50;96.60;;;;;;5072984;28;20025;-74
2023/05/08 05:30:04;;;;;;;32.85;18.08;;;16.50;96.60;;;;;;5072082;28;20039;-74
2023/05/08 05:32:30;;;;;;;32.80;17.30;;;16.60;96.60;;;;;;5072939;28;20081;-74
2023/05/08 05:34:55;;;;;;;33.17;17.92;;;16.60;96.50;;;;;;5071798;28;20032;-74
2023/05/08 05:37:22;;;;;;;31.55;17.75;;;16.60;96.50;;;;;;5072844;28;20040;-74
2023/05/08 05:39:47;;;;;;;31.45;16.42;;;16.60;97.00;;;;;;5072859;28;20400;-74
2023/05/08 05:42:13;;;;;;;32.75;17.73;;;16.60;96.60;;;;;;5072760;28;20105;-74
2023/05/08 05:44:39;;;;;;;33.40;18.63;;;16.60;96.60;;;;;;5076652;28;20171;-75
2023/05/08 05:47:05;;;;;;;33.90;18.65;;;16.60;96.50;;;;;;5076791;28;20041;-74
2023/05/08 05:49:30;;;;;;;32.38;18.10;;;16.60;96.60;;;;;;5076835;28;20414;-74
2023/05/08 05:51:56;;;;;;;34.03;18.02;;;16.60;96.60;;;;;;5076734;28;20049;-74
2023/05/08 05:54:21;;;;;;;34.85;17.83;;;16.60;96.80;;;;;;5076681;28;20029;-74
2023/05/08 05:56:47;;;;;;;31.48;16.98;;;16.70;96.80;;;;;;5076620;28;20542;-75
2023/05/08 05:59:13;;;;;;;32.72;17.45;;;16.70;96.80;;;;;;5076573;28;20029;-74
2023/05/08 06:01:38;;;;;;;33.25;17.10;;;16.80;96.80;;;;;;5076433;28;20033;-75
2023/05/08 06:04:04;;;;;;;36.28;19.42;;;16.80;96.80;;;;;;5076488;28;20047;-74
2023/05/08 06:06:30;;;;;;;32.28;18.75;;;16.80;96.50;;;;;;5075501;28;20100;-74
2023/05/08 06:08:56;;;;;;;33.35;18.13;;;16.80;96.50;;;;;;5075360;28;20032;-75
2023/05/08 06:11:22;;;;;;;40.85;19.25;;;16.80;96.50;;;;;;5076372;28;20037;-75
2023/05/08 06:13:48;;;;;;;32.45;18.08;;;16.90;96.50;;;;;;5075374;28;20028;-75
2023/05/08 06:16:14;;;;;;;33.55;18.67;;;17.00;96.50;;;;;;5076381;28;20028;-75
2023/05/08 06:18:40;;;;;;;37.22;19.35;;;17.00;96.40;;;;;;5076382;28;20018;-75
2023/05/08 06:21:06;;;;;;;36.20;19.05;;;17.00;96.40;;;;;;5076180;28;20391;-75
2023/05/08 06:23:31;;;;;;;35.22;19.48;;;17.10;96.40;;;;;;5076175;28;20040;-75
2023/05/08 06:25:57;;;;;;;35.80;18.58;;;17.10;96.40;;;;;;5076080;28;20021;-75
2023/05/08 06:28:24;;;;;;;40.03;19.67;;;17.10;96.50;;;;;;5058312;28;20040;-74
2023/05/08 06:30:50;;;;;;;38.28;19.65;;;17.10;96.50;;;;;;5076036;28;20081;-74
2023/05/08 06:33:16;;;;;;;37.05;20.25;;;17.10;96.60;;;;;;5076041;28;20473;-74
2023/05/08 06:35:48;;;;;;;40.22;22.17;;;17.20;96.60;;;;;;5075954;28;20059;-74
2023/05/08 06:38:13;;;;;;;48.17;22.73;;;17.20;96.60;;;;;;5075038;28;20036;-74
2023/05/08 06:40:43;;;;;;;39.35;21.58;;;17.10;96.80;;;;;;5058260;28;20037;-74
2023/05/08 06:43:09;;;;;;;37.60;20.50;;;17.10;96.90;;;;;;5075699;28;20051;-74
2023/05/08 06:45:34;;;;;;;38.78;21.33;;;17.10;96.90;;;;;;5075638;28;20109;-74
2023/05/08 06:48:00;;;;;;;42.53;22.50;;;17.10;96.90;;;;;;5075710;28;20037;-74
2023/05/08 06:50:26;;;;;;;44.38;22.33;;;17.20;97.10;;;;;;5074776;28;20120;-74
2023/05/08 06:52:51;;;;;;;37.83;21.83;;;17.20;97.00;;;;;;5075603;28;20033;-74
2023/05/08 06:55:17;;;;;;;46.15;23.60;;;17.30;97.00;;;;;;5073266;28;20049;-75
2023/05/08 06:57:42;;;;;;;46.03;23.88;;;17.30;97.00;;;;;;5074551;28;20051;-74
2023/05/08 07:00:09;;;;;;;45.05;25.05;;;17.30;97.00;;;;;;5074616;28;20029;-74
2023/05/08 07:02:34;;;;;;;49.90;24.92;;;17.30;97.10;;;;;;5075318;28;20029;-74
2023/05/08 07:05:00;;;;;;;49.85;27.02;;;17.30;97.30;;;;;;5075362;28;20029;-74
2023/05/08 07:07:26;;;;;;;50.10;26.40;;;17.30;97.40;;;;;;5074408;28;20021;-74
2023/05/08 07:09:51;;;;;;;52.92;27.15;;;17.40;97.50;;;;;;5074276;28;20031;-74
2023/05/08 07:12:17;;;;;;;49.75;26.73;;;17.40;97.50;;;;;;5074367;28;20040;-74
2023/05/08 07:14:43;;;;;;;49.92;26.17;;;17.30;97.50;;;;;;5074310;28;20028;-74
2023/05/08 07:17:08;;;;;;;53.25;27.95;;;17.30;97.50;;;;;;5074121;28;20089;-74
2023/05/08 07:19:37;;;;;;;49.80;26.45;;;17.30;97.60;;;;;;5074125;28;20518;-74
2023/05/08 07:22:04;;;;;;;49.05;25.80;;;17.30;97.60;;;;;;5074109;28;20392;-74
2023/05/08 07:24:30;;;;;;;46.63;25.45;;;17.30;97.70;;;;;;5074091;28;20025;-74
2023/05/08 07:26:56;;;;;;;51.22;27.42;;;17.30;97.90;;;;;;5074978;28;20021;-74
2023/05/08 07:29:21;;;;;;;46.15;25.08;;;17.20;98.10;;;;;;5074924;28;20052;-74
2023/05/08 07:31:47;;;;;;;49.92;27.17;;;17.30;98.10;;;;;;5074846;28;20056;-74
2023/05/08 07:34:13;;;;;;;52.53;29.55;;;17.40;98.00;;;;;;5073700;28;20025;-74
2023/05/08 07:36:39;;;;;;;55.17;28.63;;;17.30;98.30;;;;;;5074765;28;20029;-74
2023/05/08 07:39:05;;;;;;;53.92;28.38;;;17.20;98.50;;;;;;5074682;28;20051;-74
2023/05/08 07:41:31;;;;;;;50.75;27.33;;;17.30;98.40;;;;;;5074623;28;20036;-74
2023/05/08 07:43:56;;;;;;;53.22;28.23;;;17.30;98.20;;;;;;5073786;28;20021;-74
2023/05/08 07:46:22;;;;;;;49.20;26.30;;;17.30;98.40;;;;;;5074353;28;20048;-74
2023/05/08 07:48:48;;;;;;;52.17;27.10;;;17.40;98.30;;;;;;5073545;28;20022;-74
2023/05/08 07:51:14;;;;;;;56.22;29.13;;;17.40;98.30;;;;;;5074603;28;20380;-74
2023/05/08 07:53:40;;;;;;;57.80;30.33;;;17.50;98.30;;;;;;5074426;28;20024;-74
2023/05/08 07:56:05;;;;;;;56.13;29.83;;;17.50;98.10;;;;;;5074422;28;20049;-74
2023/05/08 07:58:31;;;;;;;52.70;27.90;;;17.50;98.30;;;;;;5056596;28;20036;-74
2023/05/08 08:00:57;;;;;;;53.03;29.02;;;17.50;98.30;;;;;;5074292;28;20151;-74
2023/05/08 08:03:22;;;;;;;49.53;27.45;;;17.50;98.30;;;;;;5073219;28;20028;-74
2023/05/08 08:05:48;;;;;;;51.65;27.83;;;17.60;98.20;;;;;;5072903;28;20104;-74
2023/05/08 08:08:13;;;;;;;50.00;27.30;;;17.70;98.20;;;;;;5074167;28;20032;-74
2023/05/08 08:10:39;;;;;;;46.60;26.02;;;17.70;98.20;;;;;;5074099;28;20025;-74
2023/05/08 08:13:05;;;;;;;49.72;26.50;;;17.80;97.90;;;;;;5074038;28;20024;-74
2023/05/08 08:15:31;;;;;;;52.95;28.50;;;17.80;97.90;;;;;;5073071;28;20031;-74
2023/05/08 08:17:56;;;;;;;52.97;29.25;;;17.80;97.90;;;;;;5073037;28;20056;-74
2023/05/08 08:20:22;;;;;;;52.55;29.13;;;17.80;97.80;;;;;;5072973;28;20048;-74
2023/05/08 08:22:48;;;;;;;52.33;28.35;;;17.80;97.60;;;;;;5073003;28;20044;-74
2023/05/08 08:25:13;;;;;;;55.05;30.17;;;17.80;97.70;;;;;;5073803;28;20029;-74
2023/05/08 08:27:39;;;;;;;52.58;28.95;;;17.90;97.70;;;;;;5073785;28;20036;-75
2023/05/08 08:30:05;;;;;;;53.03;29.80;;;18.00;97.50;;;;;;5072844;28;20029;-74
2023/05/08 08:32:31;;;;;;;50.35;28.45;;;18.00;97.40;;;;;;5073759;28;20024;-74
2023/05/08 08:34:56;;;;;;;54.42;29.05;;;18.00;97.20;;;;;;5073589;28;20065;-74
2023/05/08 08:37:23;;;;;;;48.75;29.00;;;18.10;97.20;;;;;;5073587;28;20056;-75
2023/05/08 08:39:48;;;;;;;53.50;29.40;;;18.20;97.10;;;;;;5073716;28;20033;-74
2023/05/08 08:42:14;;;;;;;53.15;30.27;;;18.30;97.10;;;;;;5073473;28;20531;-74
2023/05/08 08:44:41;;;;;;;53.83;29.58;;;18.40;97.10;;;;;;5073436;28;20068;-75
2023/05/08 08:47:10;;;;;;;54.70;30.83;;;18.40;96.70;;;;;;5055898;28;20037;-74
2023/05/08 08:49:45;;;;;;;51.25;28.10;;;18.40;96.60;;;;;;5072480;28;20021;-74
2023/05/08 08:52:26;;;;;;;51.15;29.17;;;18.40;96.80;;;;;;5073446;28;20021;-74
2023/05/08 08:54:55;;;;;;;48.58;27.55;;;18.50;96.80;;;;;;5073299;28;20029;-75
2023/05/08 08:57:23;;;;;;;47.78;28.60;;;18.60;96.40;;;;;;5073319;28;20047;-74
2023/05/08 08:59:49;;;;;;;45.30;26.95;;;18.60;96.30;;;;;;5073270;28;20041;-74
2023/05/08 09:02:20;;;;;;;45.40;26.10;;;18.60;96.20;;;;;;5073202;28;20033;-74
2023/05/08 09:04:48;;;;;;;43.97;27.25;;;18.60;96.30;;;;;;5073237;28;20028;-74
2023/05/08 09:07:16;;;;;;;45.30;27.55;;;18.70;96.40;;;;;;5073172;28;20028;-75
2023/05/08 09:09:43;;;;;;;48.20;27.23;;;18.80;96.30;;;;;;5072244;28;20021;-74
2023/05/08 09:15:34;;;;;;;44.22;25.52;;;18.90;95.90;;;;;;5090813;28;20379;-74
2023/05/08 09:18:03;;;;;;;42.08;23.85;;;18.90;96.10;;;;;;5089629;28;20037;-74
2023/05/08 09:20:29;;;;;;;41.38;24.75;;;18.90;96.00;;;;;;5090510;28;20033;-74
2023/05/08 09:22:56;;;;;;;42.03;26.08;;;18.90;96.00;;;;;;5090494;28;20073;-75
2023/05/08 09:25:22;;;;;;;44.97;26.15;;;18.90;96.20;;;;;;5089385;28;20017;-75
2023/05/08 09:27:48;;;;;;;46.92;26.70;;;18.80;96.00;;;;;;5090512;28;20029;-75
2023/05/08 09:30:14;;;;;;;43.25;25.95;;;18.70;95.80;;;;;;5090310;28;20032;-74
2023/05/08 09:32:43;;;;;;;44.33;26.52;;;18.80;96.20;;;;;;5089369;28;20029;-74
2023/05/08 09:35:10;;;;;;;46.33;27.50;;;18.80;96.20;;;;;;5089038;28;20028;-74
2023/05/08 09:37:41;;;;;;;45.05;26.38;;;18.80;96.20;;;;;;5089283;28;20029;-75
2023/05/08 09:40:21;;;;;;;47.00;27.70;;;18.80;96.10;;;;;;5090145;28;20048;-75
2023/05/08 09:42:48;;;;;;;47.70;28.30;;;18.80;96.20;;;;;;5089169;28;20024;-74
2023/05/08 09:45:28;;;;;;;50.63;29.02;;;18.90;96.20;;;;;;5089074;28;20028;-75
2023/05/08 09:47:54;;;;;;;48.53;27.00;;;18.90;96.20;;;;;;5089977;28;20037;-75
2023/05/08 09:50:20;;;;;;;46.35;27.40;;;19.00;96.30;;;;;;5089974;28;20047;-75
2023/05/08 09:52:48;;;;;;;44.80;27.35;;;19.00;95.90;;;;;;5089003;28;20024;-75
2023/05/08 09:55:13;;;;;;;51.25;26.70;;;19.10;96.10;;;;;;5089737;28;20059;-75
2023/05/08 09:57:53;;;;;;;46.03;26.23;;;19.00;95.30;;;;;;5089786;28;20024;-75
2023/05/08 10:00:19;;;;;;;48.60;27.98;;;19.00;95.20;;;;;;5089782;28;20017;-74
2023/05/08 10:02:58;;;;;;;54.08;28.30;;;19.10;95.20;;;;;;5089840;28;20017;-74
2023/05/08 10:05:28;;;;;;;53.47;29.15;;;19.00;94.70;;;;;;5088649;28;20100;-74
2023/05/08 10:07:54;;;;;;;46.55;27.10;;;19.10;95.00;;;;;;5089663;28;20108;-74
2023/05/08 10:10:29;;;;;;;52.00;30.02;;;19.10;94.90;;;;;;5089525;28;20021;-75
2023/05/08 10:12:57;;;;;;;51.72;30.75;;;19.00;95.20;;;;;;5089520;28;20085;-75
2023/05/08 10:15:26;;;;;;;53.28;31.20;;;19.10;95.20;;;;;;5089067;28;20045;-75
2023/05/08 10:18:04;;;;;;;53.08;30.98;;;19.20;95.30;;;;;;5088378;28;20033;-74
2023/05/08 10:20:32;;;;;;;51.55;29.73;;;19.10;95.00;;;;;;5089306;28;20017;-74
2023/05/08 10:22:57;;;;;;;49.80;30.58;;;19.10;94.80;;;;;;5089221;28;20393;-74
2023/05/08 10:25:24;;;;;;;51.60;29.63;;;19.20;95.20;;;;;;5084190;28;20052;-74
2023/05/08 10:28:16;;;;;;;45.97;28.02;;;19.50;95.30;;;;;;5058286;28;20037;-74
2023/05/08 10:30:47;;;;;;;48.40;27.48;;;19.70;94.90;;;;;;5075516;28;20115;-74
2023/05/08 10:33:15;;;;;;;46.60;28.10;;;19.70;93.90;;;;;;5075755;28;20025;-74
2023/05/08 10:35:41;;;;;;;46.55;28.15;;;19.60;94.30;;;;;;5075882;28;20021;-74
2023/05/08 10:38:10;;;;;;;45.80;27.58;;;19.60;94.30;;;;;;5075763;28;20025;-74
2023/05/08 10:40:37;;;;;;;49.72;27.50;;;19.60;94.50;;;;;;5074821;28;20025;-74
2023/05/08 10:43:04;;;;;;;45.65;26.75;;;19.80;94.90;;;;;;5075644;28;20017;-74
2023/05/08 10:45:31;;;;;;;44.25;27.15;;;19.90;94.20;;;;;;5074578;28;20028;-74
2023/05/08 10:48:21;;;;;;;42.15;25.38;;;20.00;93.30;;;;;;5075605;28;20041;-74
2023/05/08 10:51:16;;;;;;;39.08;23.23;;;20.10;92.80;;;;;;5074505;28;20092;-74
2023/05/08 10:53:54;;;;;;;43.83;25.63;;;20.20;93.30;;;;;;5074287;28;20059;-73
2023/05/08 10:56:27;;;;;;;37.33;23.63;;;20.40;93.40;;;;;;5075463;28;20484;-75
2023/05/08 10:58:56;;;;;;;33.30;21.98;;;20.60;92.10;;;;;;5075353;28;20025;-75
2023/05/08 11:01:23;;;;;;;35.47;22.92;;;20.60;91.60;;;;;;5075489;28;20027;-75
2023/05/08 11:03:49;;;;;;;32.30;21.88;;;20.70;91.70;;;;;;5074273;28;20567;-75
2023/05/08 11:06:15;;;;;;;28.27;19.65;;;20.80;91.70;;;;;;5075253;28;20029;-75
2023/05/08 11:08:49;;;;;;;30.52;19.92;;;20.80;90.90;;;;;;5075199;28;20100;-75
2023/05/08 11:11:27;;;;;;;29.85;18.92;;;20.80;89.50;;;;;;5075173;28;20392;-75
2023/05/08 11:13:58;;;;;;;30.92;19.77;;;20.80;88.60;;;;;;5074815;28;20182;-75
2023/05/08 11:17:06;;;;;;;30.15;19.65;;;20.60;89.30;;;;;;5075088;28;20025;-75
2023/05/08 11:19:32;;;;;;;32.33;21.83;;;20.50;89.00;;;;;;5071170;28;20033;-74
2023/05/08 11:22:10;;;;;;;32.25;21.00;;;20.40;90.60;;;;;;5073933;28;20072;-74
2023/05/08 11:24:37;;;;;;;28.48;19.30;;;20.50;91.50;;;;;;5074890;28;20036;-75
2023/05/08 11:27:02;;;;;;;28.98;19.67;;;20.60;90.50;;;;;;5074898;28;20029;-75
2023/05/08 11:29:28;;;;;;;34.10;21.65;;;20.70;90.20;;;;;;5074797;28;20033;-75
2023/05/08 11:31:54;;;;;;;32.83;21.13;;;20.80;90.50;;;;;;5074746;28;20033;-75
2023/05/08 11:34:41;;;;;;;32.58;21.58;;;20.80;89.80;;;;;;5073663;28;20036;-76
2023/05/08 11:37:15;;;;;;;31.52;20.48;;;20.90;89.30;;;;;;5072678;28;20025;-75
2023/05/08 11:39:41;;;;;;;32.45;21.02;;;20.90;89.50;;;;;;5074679;28;20043;-75
2023/05/08 12:03:16;;;;;;;30.40;19.13;;;20.60;88.80;;;;;;5152245;27;20370;-75
2023/05/08 12:05:42;;;;;;;29.38;20.13;;;20.60;90.40;;;;;;5151952;28;20042;-76
2023/05/08 12:08:10;;;;;;;34.50;21.17;;;20.70;90.30;;;;;;5151812;28;20018;-74
2023/05/08 12:10:56;;;;;;;27.70;17.83;;;20.80;90.50;;;;;;5151759;28;20028;-76
2023/05/08 12:13:27;;;;;;;30.13;18.70;;;21.00;90.20;;;;;;5151798;28;20042;-74
2023/05/08 12:15:57;;;;;;;29.77;19.83;;;21.20;89.00;;;;;;5150584;28;20016;-74
2023/05/08 12:18:25;;;;;;;33.35;21.17;;;21.30;89.40;;;;;;5151721;28;20030;-74
2023/05/08 12:20:57;;;;;;;32.40;20.23;;;21.40;88.80;;;;;;5151484;28;20043;-74
2023/05/08 12:23:24;;;;;;;27.17;18.30;;;21.50;90.00;;;;;;5151556;28;20027;-74
2023/05/08 12:25:54;;;;;;;27.70;18.63;;;21.60;88.20;;;;;;5133455;28;20570;-74
2023/05/08 12:28:20;;;;;;;29.27;19.52;;;21.60;87.10;;;;;;5151457;28;20019;-75
2023/05/08 12:30:46;;;;;;;31.85;20.65;;;21.50;86.70;;;;;;5151398;28;20015;-74
2023/05/08 12:33:13;;;;;;;32.53;21.13;;;21.50;87.80;;;;;;5151265;28;20023;-74
2023/05/08 12:35:39;;;;;;;30.17;20.60;;;21.50;86.60;;;;;;5150362;28;20030;-76
2023/05/08 12:38:06;;;;;;;30.15;19.33;;;21.60;88.10;;;;;;5151283;27;20054;-74
2023/05/08 12:40:47;;;;;;;33.22;20.08;;;21.70;86.90;;;;;;5151240;27;20024;-74
2023/05/08 12:43:13;;;;;;;29.98;18.83;;;21.90;86.40;;;;;;5151427;27;20047;-74
2023/05/08 12:45:41;;;;;;;31.40;20.15;;;21.80;84.30;;;;;;5150126;28;20030;-74
2023/05/08 12:48:16;;;;;;;30.33;20.30;;;21.70;83.70;;;;;;5132943;28;20031;-74
2023/05/08 12:50:44;;;;;;;29.33;19.83;;;21.70;85.00;;;;;;5151016;27;20494;-74
2023/05/08 12:53:14;;;;;;;33.55;22.02;;;21.80;85.90;;;;;;5150948;27;20019;-75
2023/05/08 12:55:53;;;;;;;32.40;20.40;;;21.90;86.10;;;;;;5133396;28;20042;-75
2023/05/08 12:58:19;;;;;;;36.80;21.08;;;21.90;85.30;;;;;;5150951;27;20023;-74
2023/05/08 13:00:47;;;;;;;32.75;20.77;;;21.90;85.70;;;;;;5150628;27;20035;-74